createdAt,value
2022-11-17T00:01:43.364Z,5.49
2022-11-17T00:04:11.946Z,5.51
2022-11-17T00:06:40.502Z,5.48
2022-11-17T00:09:17.752Z,5.41
2022-11-17T00:12:03.720Z,5.32
2022-11-17T00:14:37.930Z,5.44
2022-11-17T00:17:09.989Z,5.37
2022-11-17T00:19:55.973Z,5.42
2022-11-17T00:22:25.278Z,5.32
2022-11-17T00:24:53.974Z,5.27
2022-11-17T00:27:22.555Z,5.26
2022-11-17T00:29:51.252Z,5.19
2022-11-17T00:32:38.800Z,5.21
2022-11-17T00:35:08.467Z,5.22
2022-11-17T00:37:39.811Z,5.23
2022-11-17T00:40:09.402Z,5.22
2022-11-17T00:42:37.954Z,5.25
2022-11-17T00:45:07.415Z,5.26
2022-11-17T00:47:39.000Z,5.22
2022-11-17T00:50:08.377Z,5.22
2022-11-17T00:52:37.735Z,5.25
2022-11-17T00:55:07.624Z,5.22
2022-11-17T00:57:36.303Z,5.13
2022-11-17T01:00:05.731Z,5.19
2022-11-17T01:02:34.314Z,5.15
2022-11-17T01:05:04.348Z,5.16
2022-11-17T01:07:32.964Z,5.11
2022-11-17T01:10:01.624Z,5.12
2022-11-17T01:12:30.294Z,5.14
2022-11-17T01:14:58.880Z,5.15
2022-11-17T01:17:27.485Z,5.15
2022-11-17T01:19:56.177Z,5.15
2022-11-17T01:22:26.298Z,5.16
2022-11-17T01:24:54.861Z,5.16
2022-11-17T01:27:23.452Z,5.19
2022-11-17T01:29:52.033Z,5.18
2022-11-17T01:32:20.599Z,5.10
2022-11-17T01:34:49.238Z,5.12
2022-11-17T01:37:23.404Z,5.12
2022-11-17T01:39:53.481Z,5.17
2022-11-17T01:42:24.415Z,5.10
2022-11-17T01:45:05.173Z,5.09
2022-11-17T01:47:41.066Z,5.11
2022-11-17T01:50:21.500Z,5.07
2022-11-17T01:52:52.022Z,5.07
2022-11-17T01:55:23.445Z,5.10
2022-11-17T01:57:55.782Z,5.05
2022-11-17T02:00:24.326Z,5.10
2022-11-17T02:02:53.358Z,5.09
2022-11-17T02:05:34.305Z,5.10
2022-11-17T02:08:07.396Z,5.11
2022-11-17T02:10:38.676Z,5.16
2022-11-17T02:13:08.527Z,5.18
2022-11-17T02:15:37.022Z,5.15
2022-11-17T02:18:05.734Z,5.17
2022-11-17T02:21:00.138Z,5.20
2022-11-17T02:24:04.684Z,5.22
2022-11-17T02:26:59.950Z,5.17
2022-11-17T02:29:36.065Z,5.23
2022-11-17T02:32:08.354Z,5.23
2022-11-17T02:34:44.665Z,5.27
2022-11-17T02:37:22.148Z,5.25
2022-11-17T02:40:00.767Z,5.27
2022-11-17T02:42:53.943Z,5.22
2022-11-17T02:45:28.554Z,5.24
2022-11-17T02:48:01.244Z,5.26
2022-11-17T02:50:31.169Z,5.22
2022-11-17T02:52:59.943Z,5.22
2022-11-17T02:55:33.385Z,5.27
2022-11-17T02:58:01.745Z,5.27
2022-11-17T03:00:36.590Z,5.27
2022-11-17T03:03:24.170Z,5.27
2022-11-17T03:06:00.637Z,5.29
2022-11-17T03:08:38.049Z,5.27
2022-11-17T03:11:09.758Z,5.27
2022-11-17T03:13:48.958Z,5.22
2022-11-17T03:16:27.432Z,5.21
2022-11-17T03:19:07.934Z,5.19
2022-11-17T03:21:42.163Z,5.23
2022-11-17T03:24:15.435Z,5.25
2022-11-17T03:26:49.352Z,5.19
2022-11-17T03:29:22.286Z,5.23
2022-11-17T03:31:58.514Z,5.23
2022-11-17T03:34:31.409Z,5.22
2022-11-17T03:37:03.872Z,5.24
2022-11-17T03:39:34.707Z,5.25
2022-11-17T03:42:07.392Z,5.27
2022-11-17T03:44:40.934Z,5.22
2022-11-17T03:47:18.881Z,5.20
2022-11-17T03:49:53.043Z,5.02
2022-11-17T03:52:22.251Z,5.16
2022-11-17T03:54:51.014Z,5.09
2022-11-17T03:57:28.027Z,5.14
2022-11-17T03:59:59.498Z,5.12
2022-11-17T04:02:29.749Z,5.14
2022-11-17T04:05:07.334Z,5.15
2022-11-17T04:07:37.017Z,5.19
2022-11-17T04:10:06.846Z,5.20
2022-11-17T04:12:52.577Z,5.22
2022-11-17T04:15:38.660Z,5.21
2022-11-17T04:18:08.694Z,5.18
2022-11-17T04:20:37.357Z,5.07
2022-11-17T04:23:08.994Z,5.21
2022-11-17T04:25:55.661Z,5.20
2022-11-17T04:28:39.475Z,5.20
2022-11-17T04:31:13.566Z,5.19
2022-11-17T04:33:44.796Z,5.20
2022-11-17T04:36:14.446Z,5.15
2022-11-17T04:38:44.140Z,5.18
2022-11-17T04:41:31.371Z,5.19
2022-11-17T04:44:00.364Z,5.16
2022-11-17T04:46:30.541Z,5.17
2022-11-17T04:49:01.166Z,5.20
2022-11-17T04:51:30.827Z,5.15
2022-11-17T04:54:00.005Z,5.16
2022-11-17T04:56:29.537Z,5.19
2022-11-17T04:58:58.372Z,5.18
2022-11-17T05:01:28.162Z,5.15
2022-11-17T05:03:58.342Z,5.11
2022-11-17T05:06:32.157Z,5.13
2022-11-17T05:09:02.376Z,5.14
2022-11-17T05:11:49.263Z,5.12
2022-11-17T05:14:20.102Z,5.08
2022-11-17T05:17:10.393Z,5.04
2022-11-17T05:19:41.081Z,5.06
2022-11-17T05:22:29.824Z,5.04
2022-11-17T05:24:58.330Z,5.06
2022-11-17T05:27:27.290Z,5.05
2022-11-17T05:29:55.767Z,5.04
2022-11-17T05:32:24.134Z,5.01
2022-11-17T05:34:52.512Z,5.04
2022-11-17T05:37:22.279Z,5.03
2022-11-17T05:39:50.769Z,5.01
2022-11-17T05:42:19.705Z,4.95
2022-11-17T05:44:49.384Z,5.02
2022-11-17T05:47:18.557Z,5.04
2022-11-17T05:49:46.992Z,5.07
2022-11-17T05:52:15.442Z,5.04
2022-11-17T05:54:45.269Z,5.07
2022-11-17T05:57:18.336Z,4.97
2022-11-17T05:59:51.958Z,5.01
2022-11-17T06:02:25.579Z,5.00
2022-11-17T06:04:54.053Z,5.03
2022-11-17T06:07:22.549Z,4.92
2022-11-17T06:09:53.584Z,5.01
2022-11-17T06:12:22.042Z,5.05
2022-11-17T06:14:50.499Z,5.06
2022-11-17T06:17:23.536Z,5.05
2022-11-17T06:19:56.595Z,5.04
2022-11-17T06:22:26.945Z,5.05
2022-11-17T06:24:57.370Z,5.00
2022-11-17T06:27:27.191Z,4.99
2022-11-17T06:29:57.458Z,4.99
2022-11-17T06:32:26.111Z,4.98
2022-11-17T06:34:56.273Z,5.02
2022-11-17T06:37:25.224Z,5.05
2022-11-17T06:39:54.017Z,5.02
2022-11-17T06:42:44.212Z,5.02
2022-11-17T06:45:13.551Z,5.04
2022-11-17T06:47:42.052Z,5.02
2022-11-17T06:50:11.745Z,5.05
2022-11-17T06:52:40.301Z,5.00
2022-11-17T06:55:10.158Z,5.04
2022-11-17T06:57:40.311Z,4.99
2022-11-17T07:00:10.344Z,4.97
2022-11-17T07:02:38.716Z,5.03
2022-11-17T07:05:07.563Z,5.05
2022-11-17T07:07:35.977Z,5.08
2022-11-17T07:10:04.356Z,5.09
2022-11-17T07:12:32.763Z,5.07
2022-11-17T07:15:02.995Z,5.08
2022-11-17T07:17:31.422Z,5.09
2022-11-17T07:19:59.864Z,5.10
2022-11-17T07:22:28.306Z,5.11
2022-11-17T07:24:56.702Z,5.05
2022-11-17T07:27:25.138Z,5.09
2022-11-17T07:29:53.515Z,5.11
2022-11-17T07:32:23.438Z,5.09
2022-11-17T07:34:51.833Z,4.94
2022-11-17T07:37:20.604Z,5.06
2022-11-17T07:39:48.986Z,5.01
2022-11-17T07:42:17.357Z,5.01
2022-11-17T07:44:45.696Z,5.02
2022-11-17T07:47:14.162Z,5.03
2022-11-17T07:49:44.271Z,5.01
2022-11-17T07:52:13.020Z,4.99
2022-11-17T07:54:41.460Z,5.01
2022-11-17T07:57:09.808Z,5.01
2022-11-17T07:59:38.295Z,5.02
2022-11-17T08:02:06.693Z,5.02
2022-11-17T08:04:35.325Z,5.07
2022-11-17T08:07:05.365Z,4.94
2022-11-17T08:09:33.819Z,5.08
2022-11-17T08:12:02.236Z,4.91
2022-11-17T08:14:31.398Z,4.85
2022-11-17T08:16:59.862Z,5.08
2022-11-17T08:19:28.269Z,5.09
2022-11-17T08:21:58.979Z,5.07
2022-11-17T08:24:28.802Z,5.05
2022-11-17T08:26:57.200Z,4.91
2022-11-17T08:29:25.812Z,4.99
2022-11-17T08:31:54.149Z,4.99
2022-11-17T08:34:22.612Z,5.02
2022-11-17T08:36:51.008Z,4.81
2022-11-17T08:39:19.481Z,4.95
2022-11-17T08:41:49.461Z,4.97
2022-11-17T08:44:17.932Z,4.94
2022-11-17T08:46:46.414Z,4.93
2022-11-17T08:49:15.023Z,4.81
2022-11-17T08:51:43.455Z,4.99
2022-11-17T08:54:13.770Z,4.86
2022-11-17T08:56:42.231Z,4.95
2022-11-17T08:59:14.562Z,4.99
2022-11-17T09:01:42.978Z,4.98
2022-11-17T09:04:11.546Z,4.97
2022-11-17T09:06:40.088Z,4.98
2022-11-17T09:09:08.601Z,4.99
2022-11-17T09:11:37.096Z,5.04
2022-11-17T09:14:12.353Z,5.03
2022-11-17T09:16:42.168Z,5.08
2022-11-17T09:19:10.564Z,5.13
2022-11-17T09:21:39.331Z,5.14
2022-11-17T09:24:08.071Z,5.18
2022-11-17T09:26:40.982Z,5.18
2022-11-17T09:29:10.023Z,5.19
2022-11-17T09:31:38.512Z,5.20
2022-11-17T09:34:08.499Z,5.22
2022-11-17T09:36:37.373Z,5.21
2022-11-17T09:39:05.998Z,5.25
2022-11-17T09:41:37.671Z,5.24
2022-11-17T09:44:16.943Z,5.21
2022-11-17T09:46:58.903Z,5.16
2022-11-17T09:49:42.000Z,5.15
2022-11-17T09:52:18.789Z,5.20
2022-11-17T09:54:53.435Z,5.17
2022-11-17T09:57:27.673Z,5.17
2022-11-17T10:00:05.105Z,5.09
2022-11-17T10:02:33.843Z,5.09
2022-11-17T10:05:03.913Z,5.09
2022-11-17T10:07:35.369Z,5.08
2022-11-17T10:10:07.321Z,5.09
2022-11-17T10:12:43.001Z,5.07
2022-11-17T10:15:22.744Z,5.10
2022-11-17T10:17:52.605Z,5.11
2022-11-17T10:20:22.484Z,5.13
2022-11-17T10:22:53.330Z,5.13
2022-11-17T10:25:24.723Z,5.15
2022-11-17T10:27:55.318Z,5.17
2022-11-17T10:30:25.894Z,5.18
2022-11-17T10:32:55.597Z,5.16
2022-11-17T10:35:27.467Z,5.19
2022-11-17T10:37:58.723Z,5.15
2022-11-17T10:40:28.725Z,5.11
2022-11-17T10:43:22.248Z,5.17
2022-11-17T10:45:52.996Z,5.11
2022-11-17T10:48:27.352Z,5.13
2022-11-17T10:50:59.104Z,5.19
2022-11-17T10:53:44.953Z,5.16
2022-11-17T10:56:18.242Z,5.15
2022-11-17T10:59:00.428Z,5.18
2022-11-17T11:01:31.636Z,5.06
2022-11-17T11:04:00.579Z,5.05
2022-11-17T11:06:31.409Z,4.99
2022-11-17T11:09:03.542Z,4.98
2022-11-17T11:11:43.442Z,4.99
2022-11-17T11:14:21.321Z,5.00
2022-11-17T11:16:51.960Z,5.01
2022-11-17T11:19:22.923Z,5.01
2022-11-17T11:22:27.513Z,4.99
2022-11-17T11:25:05.490Z,5.01
2022-11-17T11:27:49.862Z,5.02
2022-11-17T11:30:20.044Z,5.05
2022-11-17T11:33:02.486Z,5.06
2022-11-17T11:35:56.069Z,5.02
2022-11-17T11:38:40.192Z,4.98
2022-11-17T11:41:21.138Z,4.94
2022-11-17T11:44:03.005Z,4.96
2022-11-17T11:46:43.663Z,4.93
2022-11-17T11:49:19.255Z,4.89
2022-11-17T11:51:50.729Z,4.84
2022-11-17T11:54:32.940Z,4.87
2022-11-17T11:57:02.284Z,4.87
2022-11-17T11:59:39.829Z,4.85
2022-11-17T12:02:29.120Z,4.89
2022-11-17T12:05:07.105Z,4.83
2022-11-17T12:07:44.155Z,4.84
2022-11-17T12:10:20.649Z,4.82
2022-11-17T12:12:49.431Z,4.79
2022-11-17T12:15:35.776Z,4.79
2022-11-17T12:18:08.293Z,4.81
2022-11-17T12:20:54.221Z,4.76
2022-11-17T12:23:34.068Z,4.80
2022-11-17T12:26:04.424Z,4.84
2022-11-17T12:28:36.087Z,4.80
2022-11-17T12:31:10.002Z,4.77
2022-11-17T12:34:27.368Z,4.81
2022-11-17T12:37:26.644Z,4.81
2022-11-17T12:40:08.103Z,4.80
2022-11-17T12:42:38.607Z,4.78
2022-11-17T12:45:09.357Z,4.82
2022-11-17T12:47:39.553Z,4.83
2022-11-17T12:50:40.299Z,4.85
2022-11-17T12:53:27.072Z,4.88
2022-11-17T12:56:19.743Z,4.90
2022-11-17T12:59:02.411Z,4.84
2022-11-17T13:01:41.873Z,4.81
2022-11-17T13:04:13.454Z,4.80
2022-11-17T13:07:00.879Z,4.77
2022-11-17T13:09:30.780Z,4.83
2022-11-17T13:12:04.394Z,4.81
2022-11-17T13:14:35.686Z,4.71
2022-11-17T13:17:05.160Z,4.74
2022-11-17T13:19:38.827Z,4.72
2022-11-17T13:22:15.109Z,4.68
2022-11-17T13:24:45.643Z,4.68
2022-11-17T13:27:23.625Z,4.65
2022-11-17T13:29:54.379Z,4.63
2022-11-17T13:32:25.186Z,4.58
2022-11-17T13:34:56.690Z,4.58
2022-11-17T13:37:27.420Z,4.51
2022-11-17T13:40:01.380Z,4.51
2022-11-17T13:42:33.494Z,4.45
2022-11-17T13:45:06.719Z,4.45
2022-11-17T13:47:47.040Z,4.47
2022-11-17T13:50:40.144Z,4.48
2022-11-17T13:53:24.977Z,4.33
2022-11-17T13:55:54.227Z,4.48
2022-11-17T13:58:28.614Z,4.51
2022-11-17T14:01:00.494Z,4.47
2022-11-17T14:03:35.087Z,4.46
2022-11-17T14:06:05.956Z,4.31
2022-11-17T14:08:35.756Z,4.41
2022-11-17T14:11:15.614Z,4.42
2022-11-17T14:13:46.861Z,4.40
2022-11-17T14:16:26.476Z,4.40
2022-11-17T14:19:03.511Z,4.37
2022-11-17T14:21:32.685Z,4.34
2022-11-17T14:24:13.362Z,4.32
2022-11-17T14:26:45.896Z,4.35
2022-11-17T14:29:15.705Z,4.32
2022-11-17T14:31:45.558Z,4.34
2022-11-17T14:34:14.421Z,4.33
2022-11-17T14:36:50.442Z,4.31
2022-11-17T14:39:19.994Z,4.32
2022-11-17T14:41:50.957Z,4.39
2022-11-17T14:44:19.550Z,4.28
2022-11-17T14:46:49.422Z,4.28
2022-11-17T14:49:18.301Z,4.29
2022-11-17T14:51:50.103Z,4.27
2022-11-17T14:54:18.569Z,4.31
2022-11-17T14:56:46.963Z,4.30
2022-11-17T14:59:15.708Z,4.32
2022-11-17T15:01:44.338Z,4.31
2022-11-17T15:04:48.279Z,4.31
2022-11-17T15:07:05.523Z,4.29
2022-11-17T15:09:34.035Z,4.28
2022-11-17T15:12:02.621Z,4.25
2022-11-17T15:14:30.989Z,4.28
2022-11-17T15:16:59.373Z,4.28
2022-11-17T15:19:29.258Z,4.25
2022-11-17T15:21:57.778Z,4.16
2022-11-17T15:24:26.641Z,4.11
2022-11-17T15:26:55.650Z,4.18
2022-11-17T15:29:24.258Z,4.22
2022-11-17T15:31:52.843Z,4.25
2022-11-17T15:34:21.241Z,4.15
2022-11-17T15:36:51.219Z,4.13
2022-11-17T15:39:20.147Z,4.11
2022-11-17T15:41:49.086Z,4.13
2022-11-17T15:44:19.019Z,4.09
2022-11-17T15:46:48.103Z,4.07
2022-11-17T15:49:17.041Z,4.06
2022-11-17T15:51:45.757Z,4.10
2022-11-17T15:54:20.310Z,4.06
2022-11-17T15:56:49.793Z,4.00
2022-11-17T15:59:18.502Z,4.01
2022-11-17T16:01:47.295Z,4.05
2022-11-17T16:04:16.684Z,4.04
2022-11-17T16:06:47.743Z,3.94
2022-11-17T16:09:18.078Z,3.96
2022-11-17T16:11:46.775Z,3.98
2022-11-17T16:14:15.692Z,3.89
2022-11-17T16:16:46.979Z,3.98
2022-11-17T16:19:15.748Z,3.96
2022-11-17T16:21:44.783Z,4.00
2022-11-17T16:24:13.625Z,3.94
2022-11-17T16:26:44.795Z,3.91
2022-11-17T16:29:13.850Z,3.89
2022-11-17T16:31:42.395Z,3.92
2022-11-17T16:34:13.889Z,3.92
2022-11-17T16:36:43.731Z,3.94
2022-11-17T16:39:14.301Z,3.95
2022-11-17T16:41:47.434Z,3.93
2022-11-17T16:44:18.382Z,3.88
2022-11-17T16:46:48.379Z,3.91
2022-11-17T16:49:19.336Z,3.84
2022-11-17T16:51:50.431Z,3.86
2022-11-17T16:54:19.689Z,3.85
2022-11-17T16:56:49.648Z,3.84
2022-11-17T16:59:18.256Z,3.85
2022-11-17T17:01:47.816Z,3.89
2022-11-17T17:04:16.495Z,3.89
2022-11-17T17:06:46.142Z,3.84
2022-11-17T17:09:16.195Z,3.84
2022-11-17T17:11:44.920Z,3.80
2022-11-17T17:14:16.164Z,3.77
2022-11-17T17:16:44.578Z,3.80
2022-11-17T17:19:15.186Z,3.80
2022-11-17T17:21:44.682Z,3.80
2022-11-17T17:24:13.319Z,3.82
2022-11-17T17:26:41.911Z,3.80
2022-11-17T17:29:11.619Z,3.77
2022-11-17T17:31:42.946Z,3.74
2022-11-17T17:34:13.305Z,3.76
2022-11-17T17:36:42.321Z,3.75
2022-11-17T17:39:15.929Z,3.71
2022-11-17T17:41:46.235Z,3.74
2022-11-17T17:44:17.531Z,3.75
2022-11-17T17:46:48.572Z,3.76
2022-11-17T17:49:19.118Z,3.78
2022-11-17T17:51:47.986Z,3.76
2022-11-17T17:54:18.206Z,3.77
2022-11-17T17:56:46.976Z,3.76
2022-11-17T17:59:16.122Z,3.73
2022-11-17T18:01:48.232Z,3.77
2022-11-17T18:04:17.330Z,3.77
2022-11-17T18:06:48.385Z,3.72
2022-11-17T18:09:19.827Z,3.74
2022-11-17T18:11:50.547Z,3.77
2022-11-17T18:14:24.251Z,3.73
2022-11-17T18:16:56.110Z,3.71
2022-11-17T18:19:29.745Z,3.75
2022-11-17T18:22:01.452Z,3.76
2022-11-17T18:24:29.873Z,3.72
2022-11-17T18:26:58.851Z,3.74
2022-11-17T18:29:27.441Z,3.69
2022-11-17T18:31:57.265Z,3.66
2022-11-17T18:34:26.733Z,3.67
2022-11-17T18:36:56.889Z,3.65
2022-11-17T18:39:25.772Z,3.65
2022-11-17T18:41:54.412Z,3.66
2022-11-17T18:44:22.834Z,3.78
2022-11-17T18:46:51.285Z,3.70
2022-11-17T18:49:21.183Z,3.67
2022-11-17T18:51:49.664Z,3.70
2022-11-17T18:54:18.195Z,3.67
2022-11-17T18:56:46.733Z,3.70
2022-11-17T18:59:15.685Z,3.66
2022-11-17T19:01:44.588Z,3.68
2022-11-17T19:04:14.814Z,3.67
2022-11-17T19:06:44.753Z,3.55
2022-11-17T19:09:13.815Z,3.65
2022-11-17T19:11:42.922Z,3.58
2022-11-17T19:14:11.386Z,3.65
2022-11-17T19:16:44.493Z,3.62
2022-11-17T19:19:15.345Z,3.64
2022-11-17T19:21:45.725Z,3.56
2022-11-17T19:24:15.463Z,3.59
2022-11-17T19:26:43.828Z,3.49
2022-11-17T19:29:17.288Z,3.66
2022-11-17T19:31:46.781Z,3.63
2022-11-17T19:34:15.697Z,3.52
2022-11-17T19:36:45.841Z,3.62
2022-11-17T19:39:15.449Z,3.61
2022-11-17T19:41:47.802Z,3.57
2022-11-17T19:44:16.306Z,3.58
2022-11-17T19:46:44.767Z,3.49
2022-11-17T19:49:14.253Z,3.49
2022-11-17T19:51:42.801Z,3.56
2022-11-17T19:54:14.606Z,3.57
2022-11-17T19:56:43.180Z,3.47
2022-11-17T19:59:16.101Z,3.55
2022-11-17T20:01:46.176Z,3.57
2022-11-17T20:04:14.704Z,3.71
2022-11-17T20:06:43.399Z,3.79
2022-11-17T20:09:15.336Z,3.80
2022-11-17T20:11:44.612Z,3.72
2022-11-17T20:14:14.636Z,3.66
2022-11-17T20:16:43.060Z,3.66
2022-11-17T20:19:12.466Z,3.60
2022-11-17T20:21:41.782Z,3.52
2022-11-17T20:24:10.598Z,3.58
2022-11-17T20:26:42.559Z,3.59
2022-11-17T20:29:11.084Z,3.61
2022-11-17T20:31:39.511Z,3.60
2022-11-17T20:34:07.936Z,3.54
2022-11-17T20:36:36.618Z,3.54
2022-11-17T20:39:07.330Z,3.57
2022-11-17T20:41:36.149Z,3.57
2022-11-17T20:44:24.260Z,3.60
2022-11-17T20:46:54.153Z,3.50
2022-11-17T20:49:23.290Z,3.37
2022-11-17T20:51:52.166Z,3.45
2022-11-17T20:54:21.574Z,3.50
2022-11-17T20:56:50.010Z,3.49
2022-11-17T20:59:20.393Z,3.45
2022-11-17T21:01:49.591Z,3.48
2022-11-17T21:04:18.165Z,3.43
2022-11-17T21:06:46.565Z,3.42
2022-11-17T21:09:15.913Z,3.44
2022-11-17T21:12:00.316Z,3.42
2022-11-17T21:14:30.594Z,3.46
2022-11-17T21:17:00.698Z,3.45
2022-11-17T21:19:34.201Z,3.39
2022-11-17T21:22:04.947Z,3.41
2022-11-17T21:24:33.324Z,3.42
2022-11-17T21:27:02.291Z,3.38
2022-11-17T21:29:33.237Z,3.38
2022-11-17T21:32:02.531Z,3.38
2022-11-17T21:34:31.043Z,3.45
2022-11-17T21:36:59.429Z,3.51
2022-11-17T21:39:29.244Z,3.50
2022-11-17T21:41:57.636Z,3.44
2022-11-17T21:44:26.322Z,3.40
2022-11-17T21:46:56.566Z,3.28
2022-11-17T21:49:25.732Z,3.38
2022-11-17T21:51:54.397Z,3.36
2022-11-17T21:54:22.865Z,3.34
2022-11-17T21:56:51.396Z,3.34
2022-11-17T21:59:19.978Z,3.32
2022-11-17T22:01:48.474Z,3.25
2022-11-17T22:04:19.400Z,3.31
2022-11-17T22:06:48.004Z,3.32
2022-11-17T22:09:16.736Z,3.32
2022-11-17T22:11:45.316Z,3.41
2022-11-17T22:14:15.919Z,3.45
2022-11-17T22:16:46.375Z,3.42
2022-11-17T22:19:16.214Z,3.33
2022-11-17T22:21:47.703Z,3.42
2022-11-17T22:24:16.108Z,3.37
2022-11-17T22:26:45.555Z,3.36
2022-11-17T22:29:16.402Z,3.44
2022-11-17T22:31:45.539Z,3.30
2022-11-17T22:34:14.194Z,3.28
2022-11-17T22:36:43.422Z,3.26
2022-11-17T22:39:13.440Z,3.29
2022-11-17T22:41:41.939Z,3.25
2022-11-17T22:44:15.310Z,3.26
2022-11-17T22:46:44.485Z,3.23
2022-11-17T22:49:13.505Z,3.22
2022-11-17T22:51:59.668Z,3.21
2022-11-17T22:54:29.476Z,3.19
2022-11-17T22:56:58.092Z,3.22
2022-11-17T22:59:26.506Z,3.22
2022-11-17T23:01:55.105Z,3.19
2022-11-17T23:04:24.404Z,3.13
2022-11-17T23:06:53.103Z,3.24
2022-11-17T23:09:21.663Z,3.22
2022-11-17T23:11:51.419Z,3.25
2022-11-17T23:14:20.034Z,3.25
2022-11-17T23:16:48.382Z,3.23
2022-11-17T23:19:17.038Z,3.22
2022-11-17T23:21:45.696Z,3.22
2022-11-17T23:24:14.967Z,3.25
2022-11-17T23:26:44.099Z,3.19
2022-11-17T23:29:14.176Z,3.13
2022-11-17T23:31:42.822Z,3.15
2022-11-17T23:34:12.304Z,3.01
2022-11-17T23:36:40.678Z,3.14
2022-11-17T23:39:09.240Z,3.01
2022-11-17T23:41:37.646Z,3.15
2022-11-17T23:44:06.568Z,3.20
2022-11-17T23:46:36.388Z,3.15
2022-11-17T23:49:05.100Z,3.12
2022-11-17T23:51:33.463Z,3.16
2022-11-17T23:54:02.999Z,3.13
2022-11-17T23:56:33.970Z,3.10
2022-11-17T23:59:02.701Z,3.15
